createdAt,value
2018-01-10T00:00:03.270Z,1004.27
2018-01-10T00:01:03.191Z,1004.25
2018-01-10T00:02:03.121Z,1004.27
2018-01-10T00:03:03.034Z,1004.22
2018-01-10T00:04:03.006Z,1004.25
2018-01-10T00:05:02.879Z,1004.24
2018-01-10T00:06:02.819Z,1004.24
2018-01-10T00:07:02.754Z,1004.20
2018-01-10T00:08:02.639Z,1004.18
2018-01-10T00:09:02.556Z,1004.24
2018-01-10T00:10:02.469Z,1004.25
2018-01-10T00:11:02.400Z,1004.23
2018-01-10T00:12:02.306Z,1004.22
2018-01-10T00:13:02.237Z,1004.21
2018-01-10T00:14:02.148Z,1004.22
2018-01-10T00:15:02.070Z,1004.19
2018-01-10T00:16:01.988Z,1004.15
2018-01-10T00:17:01.919Z,1004.18
2018-01-10T00:18:01.837Z,1004.20
2018-01-10T00:19:01.754Z,1004.19
2018-01-10T00:20:01.672Z,1004.18
2018-01-10T00:21:01.597Z,1004.15
2018-01-10T00:22:01.507Z,1004.22
2018-01-10T00:23:01.467Z,1004.17
2018-01-10T00:24:01.360Z,1004.16
2018-01-10T00:25:01.268Z,1004.13
2018-01-10T00:26:01.196Z,1004.15
2018-01-10T00:27:01.116Z,1004.09
2018-01-10T00:28:01.034Z,1004.12
2018-01-10T00:29:00.951Z,1004.10
2018-01-10T00:30:00.871Z,1004.11
2018-01-10T00:31:00.792Z,1004.10
2018-01-10T00:32:00.722Z,1004.09
2018-01-10T00:33:00.631Z,1004.08
2018-01-10T00:34:00.557Z,1004.06
2018-01-10T00:35:00.476Z,1004.12
2018-01-10T00:36:00.386Z,1004.12
2018-01-10T00:37:00.313Z,1004.12
2018-01-10T00:38:00.230Z,1004.11
2018-01-10T00:39:00.181Z,1004.08
2018-01-10T00:40:00.076Z,1004.07
2018-01-10T00:40:59.996Z,1004.09
2018-01-10T00:41:59.908Z,1004.04
2018-01-10T00:42:59.837Z,1004.06
2018-01-10T00:43:59.747Z,1004.04
2018-01-10T00:44:59.674Z,1004.04
2018-01-10T00:45:59.588Z,1004.03
2018-01-10T00:46:59.511Z,1004.09
2018-01-10T00:47:59.430Z,1004.03
2018-01-10T00:48:59.348Z,1004.02
2018-01-10T00:49:59.292Z,1004.04
2018-01-10T00:50:59.186Z,1004.02
2018-01-10T00:51:59.107Z,1003.97
2018-01-10T00:52:59.027Z,1003.98
2018-01-10T00:53:58.953Z,1003.96
2018-01-10T00:54:58.868Z,1003.98
2018-01-10T00:55:58.784Z,1004.00
2018-01-10T00:56:58.713Z,1003.98
2018-01-10T00:57:58.632Z,1003.95
2018-01-10T00:58:58.545Z,1003.97
2018-01-10T00:59:58.463Z,1003.98
2018-01-10T01:00:58.434Z,1003.93
2018-01-10T01:01:58.303Z,1003.98
2018-01-10T01:02:58.219Z,1003.96
2018-01-10T01:03:58.151Z,1003.95
2018-01-10T01:04:58.071Z,1003.94
2018-01-10T01:05:57.991Z,1003.94
2018-01-10T01:06:57.927Z,1003.92
2018-01-10T01:07:57.820Z,1003.90
2018-01-10T01:08:57.740Z,1003.91
2018-01-10T01:09:57.659Z,1003.91
2018-01-10T01:10:57.584Z,1003.92
2018-01-10T01:11:57.531Z,1003.90
2018-01-10T01:12:57.432Z,1003.90
2018-01-10T01:13:57.349Z,1003.95
2018-01-10T01:14:57.271Z,1003.88
2018-01-10T01:15:57.183Z,1003.92
2018-01-10T01:16:57.132Z,1003.88
2018-01-10T01:17:57.030Z,1003.91
2018-01-10T01:18:56.938Z,1003.92
2018-01-10T01:19:56.866Z,1003.91
2018-01-10T01:20:56.786Z,1003.95
2018-01-10T01:21:56.705Z,1003.91
2018-01-10T01:22:56.629Z,1003.97
2018-01-10T01:23:56.541Z,1003.98
2018-01-10T01:24:56.472Z,1003.95
2018-01-10T01:25:56.378Z,1003.94
2018-01-10T01:26:56.302Z,1004.00
2018-01-10T01:27:56.254Z,1003.95
2018-01-10T01:28:56.139Z,1003.92
2018-01-10T01:29:56.106Z,1003.93
2018-01-10T01:30:55.980Z,1003.92
2018-01-10T01:31:55.906Z,1003.95
2018-01-10T01:32:55.817Z,1003.93
2018-01-10T01:33:55.750Z,1003.91
2018-01-10T01:34:55.659Z,1003.94
2018-01-10T01:35:55.580Z,1003.94
2018-01-10T01:36:55.502Z,1003.96
2018-01-10T01:37:55.420Z,1003.94
2018-01-10T01:38:55.361Z,1003.95
2018-01-10T01:39:55.256Z,1003.96
2018-01-10T01:40:55.179Z,1003.94
2018-01-10T01:41:55.103Z,1003.93
2018-01-10T01:42:55.020Z,1003.98
2018-01-10T01:43:54.938Z,1004.01
2018-01-10T01:44:54.860Z,1003.99
2018-01-10T01:45:54.773Z,1003.99
2018-01-10T01:46:54.693Z,1003.99
2018-01-10T01:47:54.611Z,1004.01
2018-01-10T01:48:54.532Z,1003.99
2018-01-10T01:49:54.494Z,1003.99
2018-01-10T01:50:54.375Z,1004.00
2018-01-10T01:51:54.292Z,1004.00
2018-01-10T01:52:54.211Z,1004.01
2018-01-10T01:53:54.134Z,1004.04
2018-01-10T01:54:54.053Z,1004.00
2018-01-10T01:55:53.974Z,1004.04
2018-01-10T01:56:53.887Z,1004.04
2018-01-10T01:57:53.807Z,1004.03
2018-01-10T01:58:53.732Z,1004.06
2018-01-10T01:59:53.647Z,1004.05
2018-01-10T02:00:53.604Z,1004.02
2018-01-10T02:01:53.494Z,1004.06
2018-01-10T02:02:53.414Z,1004.00
2018-01-10T02:03:53.336Z,1004.04
2018-01-10T02:04:53.251Z,1004.01
2018-01-10T02:05:53.165Z,1004.06
2018-01-10T02:06:53.095Z,1004.03
2018-01-10T02:07:53.019Z,1004.03
2018-01-10T02:08:52.932Z,1004.04
2018-01-10T02:09:52.849Z,1004.08
2018-01-10T02:10:52.772Z,1004.03
2018-01-10T02:11:52.715Z,1004.01
2018-01-10T02:12:52.609Z,1004.00
2018-01-10T02:13:52.525Z,1004.02
2018-01-10T02:14:52.449Z,1003.99
2018-01-10T02:15:52.372Z,1003.95
2018-01-10T02:16:52.290Z,1003.94
2018-01-10T02:17:52.218Z,1003.91
2018-01-10T02:18:52.126Z,1003.93
2018-01-10T02:19:52.052Z,1003.95
2018-01-10T02:20:51.968Z,1003.93
2018-01-10T02:21:51.890Z,1003.94
2018-01-10T02:22:51.813Z,1003.98
2018-01-10T02:23:51.727Z,1003.93
2018-01-10T02:24:51.650Z,1003.94
2018-01-10T02:25:51.570Z,1003.92
2018-01-10T02:26:51.484Z,1003.97
2018-01-10T02:27:51.434Z,1003.95
2018-01-10T02:28:51.363Z,1003.89
2018-01-10T02:29:51.298Z,1003.94
2018-01-10T02:30:51.170Z,1003.92
2018-01-10T02:31:51.086Z,1003.94
2018-01-10T02:32:51.012Z,1003.90
2018-01-10T02:33:50.928Z,1003.92
2018-01-10T02:34:50.847Z,1003.89
2018-01-10T02:35:50.771Z,1003.85
2018-01-10T02:36:50.692Z,1003.91
2018-01-10T02:37:50.604Z,1003.89
2018-01-10T02:38:50.530Z,1003.91
2018-01-10T02:39:50.443Z,1003.91
2018-01-10T02:40:50.368Z,1003.94
2018-01-10T02:41:50.285Z,1003.90
2018-01-10T02:42:50.213Z,1003.87
2018-01-10T02:43:50.153Z,1003.90
2018-01-10T02:44:50.050Z,1003.90
2018-01-10T02:45:49.972Z,1003.87
2018-01-10T02:46:49.892Z,1003.86
2018-01-10T02:47:49.802Z,1003.89
2018-01-10T02:48:49.723Z,1003.90
2018-01-10T02:49:49.651Z,1003.86
2018-01-10T02:50:49.563Z,1003.88
2018-01-10T02:51:49.489Z,1003.90
2018-01-10T02:52:49.409Z,1003.84
2018-01-10T02:53:49.330Z,1003.88
2018-01-10T02:54:49.248Z,1003.83
2018-01-10T02:55:49.196Z,1003.85
2018-01-10T02:56:49.091Z,1003.89
2018-01-10T02:57:49.008Z,1003.81
2018-01-10T02:58:48.924Z,1003.85
2018-01-10T02:59:48.843Z,1003.86
2018-01-10T03:00:48.770Z,1003.88
2018-01-10T03:01:48.712Z,1003.89
2018-01-10T03:02:48.606Z,1003.87
2018-01-10T03:03:48.530Z,1003.87
2018-01-10T03:04:48.442Z,1003.89
2018-01-10T03:05:48.362Z,1003.80
2018-01-10T03:06:48.306Z,1003.79
2018-01-10T03:07:48.210Z,1003.78
2018-01-10T03:08:48.123Z,1003.78
2018-01-10T03:09:48.049Z,1003.76
2018-01-10T03:10:47.963Z,1003.72
2018-01-10T03:11:47.916Z,1003.76
2018-01-10T03:12:47.802Z,1003.74
2018-01-10T03:13:47.728Z,1003.74
2018-01-10T03:14:47.646Z,1003.71
2018-01-10T03:15:47.567Z,1003.72
2018-01-10T03:16:47.485Z,1003.71
2018-01-10T03:17:47.402Z,1003.74
2018-01-10T03:18:47.334Z,1003.71
2018-01-10T03:19:47.248Z,1003.71
2018-01-10T03:20:47.169Z,1003.72
2018-01-10T03:21:47.082Z,1003.69
2018-01-10T03:22:47.026Z,1003.70
2018-01-10T03:23:46.919Z,1003.70
2018-01-10T03:24:46.841Z,1003.66
2018-01-10T03:25:46.760Z,1003.68
2018-01-10T03:26:46.681Z,1003.67
2018-01-10T03:27:46.629Z,1003.63
2018-01-10T03:28:46.526Z,1003.62
2018-01-10T03:29:46.467Z,1003.65
2018-01-10T03:30:46.370Z,1003.65
2018-01-10T03:31:46.280Z,1003.67
2018-01-10T03:32:46.200Z,1003.69
2018-01-10T03:33:46.131Z,1003.69
2018-01-10T03:34:46.037Z,1003.71
2018-01-10T03:35:45.959Z,1003.70
2018-01-10T03:36:45.884Z,1003.66
2018-01-10T03:37:45.805Z,1003.71
2018-01-10T03:38:45.783Z,1003.70
2018-01-10T03:39:45.646Z,1003.72
2018-01-10T03:40:45.565Z,1003.66
2018-01-10T03:41:45.482Z,1003.64
2018-01-10T03:42:45.403Z,1003.68
2018-01-10T03:43:45.315Z,1003.68
2018-01-10T03:44:45.235Z,1003.69
2018-01-10T03:45:45.157Z,1003.69
2018-01-10T03:46:45.076Z,1003.69
2018-01-10T03:47:45.004Z,1003.63
2018-01-10T03:48:44.921Z,1003.64
2018-01-10T03:49:44.854Z,1003.69
2018-01-10T03:50:44.761Z,1003.68
2018-01-10T03:51:44.677Z,1003.71
2018-01-10T03:52:44.593Z,1003.69
2018-01-10T03:53:44.514Z,1003.65
2018-01-10T03:54:44.473Z,1003.64
2018-01-10T03:55:44.359Z,1003.60
2018-01-10T03:56:44.279Z,1003.64
2018-01-10T03:57:44.195Z,1003.58
2018-01-10T03:58:44.124Z,1003.59
2018-01-10T03:59:44.034Z,1003.60
2018-01-10T04:00:43.961Z,1003.58
2018-01-10T04:01:43.885Z,1003.57
2018-01-10T04:02:43.791Z,1003.55
2018-01-10T04:03:43.711Z,1003.55
2018-01-10T04:04:43.637Z,1003.52
2018-01-10T04:05:43.599Z,1003.54
2018-01-10T04:06:43.475Z,1003.52
2018-01-10T04:07:43.402Z,1003.54
2018-01-10T04:08:43.313Z,1003.49
2018-01-10T04:09:43.233Z,1003.52
2018-01-10T04:10:43.162Z,1003.51
2018-01-10T04:11:43.081Z,1003.51
2018-01-10T04:12:42.993Z,1003.50
2018-01-10T04:13:42.925Z,1003.52
2018-01-10T04:14:42.841Z,1003.53
2018-01-10T04:15:42.754Z,1003.50
2018-01-10T04:16:42.703Z,1003.56
2018-01-10T04:17:42.592Z,1003.48
2018-01-10T04:18:42.512Z,1003.56
2018-01-10T04:19:42.436Z,1003.53
2018-01-10T04:20:42.360Z,1003.49
2018-01-10T04:21:42.278Z,1003.51
2018-01-10T04:22:42.202Z,1003.49
2018-01-10T04:23:42.116Z,1003.49
2018-01-10T04:24:42.034Z,1003.48
2018-01-10T04:25:41.954Z,1003.46
2018-01-10T04:26:41.871Z,1003.45
2018-01-10T04:27:41.819Z,1003.48
2018-01-10T04:28:41.714Z,1003.44
2018-01-10T04:29:41.632Z,1003.49
2018-01-10T04:30:41.559Z,1003.46
2018-01-10T04:31:41.471Z,1003.46
2018-01-10T04:32:41.398Z,1003.46
2018-01-10T04:33:41.313Z,1003.48
2018-01-10T04:34:41.243Z,1003.45
2018-01-10T04:35:41.151Z,1003.47
2018-01-10T04:36:41.078Z,1003.40
2018-01-10T04:37:40.995Z,1003.43
2018-01-10T04:38:40.937Z,1003.42
2018-01-10T04:39:40.843Z,1003.44
2018-01-10T04:40:40.748Z,1003.48
2018-01-10T04:41:40.678Z,1003.44
2018-01-10T04:42:40.602Z,1003.46
2018-01-10T04:43:40.516Z,1003.52
2018-01-10T04:44:40.433Z,1003.49
2018-01-10T04:45:40.358Z,1003.49
2018-01-10T04:46:40.279Z,1003.48
2018-01-10T04:47:40.200Z,1003.47
2018-01-10T04:48:40.115Z,1003.49
2018-01-10T04:49:40.066Z,1003.47
2018-01-10T04:50:39.953Z,1003.51
2018-01-10T04:51:39.878Z,1003.49
2018-01-10T04:52:39.792Z,1003.50
2018-01-10T04:53:39.711Z,1003.48
2018-01-10T04:54:39.630Z,1003.43
2018-01-10T04:55:39.559Z,1003.41
2018-01-10T04:56:39.498Z,1003.41
2018-01-10T04:57:39.395Z,1003.40
2018-01-10T04:58:39.319Z,1003.41
2018-01-10T04:59:39.230Z,1003.39
2018-01-10T05:00:39.175Z,1003.41
2018-01-10T05:01:39.074Z,1003.39
2018-01-10T05:02:38.998Z,1003.42
2018-01-10T05:03:38.917Z,1003.34
2018-01-10T05:04:38.829Z,1003.36
2018-01-10T05:05:38.779Z,1003.41
2018-01-10T05:06:38.681Z,1003.42
2018-01-10T05:07:38.595Z,1003.35
2018-01-10T05:08:38.524Z,1003.39
2018-01-10T05:09:38.432Z,1003.37
2018-01-10T05:10:38.353Z,1003.39
2018-01-10T05:11:38.276Z,1003.35
2018-01-10T05:12:38.198Z,1003.41
2018-01-10T05:13:38.119Z,1003.37
2018-01-10T05:14:38.044Z,1003.36
2018-01-10T05:15:37.955Z,1003.39
2018-01-10T05:16:37.913Z,1003.40
2018-01-10T05:17:37.796Z,1003.39
2018-01-10T05:18:37.722Z,1003.45
2018-01-10T05:19:37.642Z,1003.41
2018-01-10T05:20:37.573Z,1003.40
2018-01-10T05:21:37.479Z,1003.42
2018-01-10T05:22:37.406Z,1003.38
2018-01-10T05:23:37.312Z,1003.42
2018-01-10T05:24:37.232Z,1003.43
2018-01-10T05:25:37.161Z,1003.43
2018-01-10T05:26:37.075Z,1003.40
2018-01-10T05:27:37.029Z,1003.43
2018-01-10T05:28:36.920Z,1003.47
2018-01-10T05:29:36.844Z,1003.46
2018-01-10T05:30:36.756Z,1003.47
2018-01-10T05:31:36.684Z,1003.42
2018-01-10T05:32:36.595Z,1003.45
2018-01-10T05:33:36.531Z,1003.45
2018-01-10T05:34:36.444Z,1003.45
2018-01-10T05:35:36.361Z,1003.54
2018-01-10T05:36:36.323Z,1003.51
2018-01-10T05:37:36.198Z,1003.47
2018-01-10T05:38:36.152Z,1003.50
2018-01-10T05:39:36.035Z,1003.50
2018-01-10T05:40:35.961Z,1003.50
2018-01-10T05:41:35.878Z,1003.48
2018-01-10T05:42:35.807Z,1003.52
2018-01-10T05:43:35.724Z,1003.51
2018-01-10T05:44:35.640Z,1003.43
2018-01-10T05:45:35.558Z,1003.49
2018-01-10T05:46:35.487Z,1003.45
2018-01-10T05:47:35.403Z,1003.45
2018-01-10T05:48:35.319Z,1003.46
2018-01-10T05:49:35.277Z,1003.41
2018-01-10T05:50:35.164Z,1003.44
2018-01-10T05:51:35.089Z,1003.44
2018-01-10T05:52:35.009Z,1003.44
2018-01-10T05:53:34.933Z,1003.40
2018-01-10T05:54:34.847Z,1003.46
2018-01-10T05:55:34.762Z,1003.46
2018-01-10T05:56:34.683Z,1003.48
2018-01-10T05:57:34.612Z,1003.50
2018-01-10T05:58:34.522Z,1003.48
2018-01-10T05:59:34.446Z,1003.47
2018-01-10T06:00:34.390Z,1003.47
2018-01-10T06:01:34.290Z,1003.46
2018-01-10T06:02:34.204Z,1003.50
2018-01-10T06:03:34.123Z,1003.46
2018-01-10T06:04:34.042Z,1003.46
2018-01-10T06:05:33.995Z,1003.48
2018-01-10T06:06:33.893Z,1003.55
2018-01-10T06:07:33.808Z,1003.46
2018-01-10T06:08:33.724Z,1003.49
2018-01-10T06:09:33.648Z,1003.47
2018-01-10T06:10:33.571Z,1003.47
2018-01-10T06:11:33.490Z,1003.50
2018-01-10T06:12:33.406Z,1003.50
2018-01-10T06:13:33.333Z,1003.48
2018-01-10T06:14:33.244Z,1003.48
2018-01-10T06:15:33.166Z,1003.57
2018-01-10T06:16:33.118Z,1003.51
2018-01-10T06:17:33.016Z,1003.52
2018-01-10T06:18:32.926Z,1003.46
2018-01-10T06:19:32.844Z,1003.51
2018-01-10T06:20:32.774Z,1003.55
2018-01-10T06:21:32.682Z,1003.50
2018-01-10T06:22:32.618Z,1003.52
2018-01-10T06:23:32.533Z,1003.49
2018-01-10T06:24:32.456Z,1003.51
2018-01-10T06:25:32.409Z,1003.50
2018-01-10T06:26:32.306Z,1003.54
2018-01-10T06:27:32.230Z,1003.50
2018-01-10T06:28:32.125Z,1003.53
2018-01-10T06:29:32.055Z,1003.52
2018-01-10T06:30:31.995Z,1003.50
2018-01-10T06:31:31.889Z,1003.52
2018-01-10T06:32:31.843Z,1003.50
2018-01-10T06:33:31.729Z,1003.52
2018-01-10T06:34:31.649Z,1003.54
2018-01-10T06:35:31.570Z,1003.51
2018-01-10T06:36:31.489Z,1003.53
2018-01-10T06:37:31.410Z,1003.53
2018-01-10T06:38:31.336Z,1003.53
2018-01-10T06:39:31.249Z,1003.52
2018-01-10T06:40:31.169Z,1003.56
2018-01-10T06:41:31.088Z,1003.55
2018-01-10T06:42:31.017Z,1003.57
2018-01-10T06:43:30.969Z,1003.56
2018-01-10T06:44:30.855Z,1003.59
2018-01-10T06:45:30.769Z,1003.58
2018-01-10T06:46:30.694Z,1003.59
2018-01-10T06:47:30.616Z,1003.56
2018-01-10T06:48:30.532Z,1003.56
2018-01-10T06:49:30.458Z,1003.60
2018-01-10T06:50:30.386Z,1003.58
2018-01-10T06:51:30.302Z,1003.56
2018-01-10T06:52:30.212Z,1003.60
2018-01-10T06:53:30.138Z,1003.55
2018-01-10T06:54:30.086Z,1003.56
2018-01-10T06:55:29.969Z,1003.57
2018-01-10T06:56:29.894Z,1003.56
2018-01-10T06:57:29.813Z,1003.59
2018-01-10T06:58:29.782Z,1003.59
2018-01-10T06:59:29.656Z,1003.64
2018-01-10T07:00:29.578Z,1003.56
2018-01-10T07:01:29.490Z,1003.57
2018-01-10T07:02:29.417Z,1003.54
2018-01-10T07:03:29.330Z,1003.62
2018-01-10T07:04:29.255Z,1003.56
2018-01-10T07:05:29.192Z,1003.55
2018-01-10T07:06:29.096Z,1003.56
2018-01-10T07:07:29.007Z,1003.54
2018-01-10T07:08:28.938Z,1003.55
2018-01-10T07:09:28.857Z,1003.52
2018-01-10T07:10:28.772Z,1003.57
2018-01-10T07:11:28.687Z,1003.54
2018-01-10T07:12:28.609Z,1003.54
2018-01-10T07:13:28.541Z,1003.62
2018-01-10T07:14:28.445Z,1003.58
2018-01-10T07:15:28.414Z,1003.58
2018-01-10T07:16:28.295Z,1003.57
2018-01-10T07:17:28.211Z,1003.58
2018-01-10T07:18:28.124Z,1003.54
2018-01-10T07:19:28.059Z,1003.59
2018-01-10T07:20:28.006Z,1003.58
2018-01-10T07:21:27.892Z,1003.59
2018-01-10T07:22:27.802Z,1003.61
2018-01-10T07:23:27.723Z,1003.62
2018-01-10T07:24:27.651Z,1003.61
2018-01-10T07:25:27.564Z,1003.61
2018-01-10T07:26:27.489Z,1003.60
2018-01-10T07:27:27.407Z,1003.59
2018-01-10T07:28:27.331Z,1003.61
2018-01-10T07:29:27.249Z,1003.64
2018-01-10T07:30:27.170Z,1003.58
2018-01-10T07:31:27.103Z,1003.65
2018-01-10T07:32:27.000Z,1003.64
2018-01-10T07:33:26.938Z,1003.66
2018-01-10T07:34:26.846Z,1003.63
2018-01-10T07:35:26.768Z,1003.64
2018-01-10T07:36:26.713Z,1003.72
2018-01-10T07:37:26.602Z,1003.71
2018-01-10T07:38:26.522Z,1003.73
2018-01-10T07:39:26.446Z,1003.71
2018-01-10T07:40:26.366Z,1003.76
2018-01-10T07:41:26.275Z,1003.75
2018-01-10T07:42:26.207Z,1003.71
2018-01-10T07:43:26.124Z,1003.73
2018-01-10T07:44:26.039Z,1003.76
2018-01-10T07:45:25.958Z,1003.77
2018-01-10T07:46:25.883Z,1003.76
2018-01-10T07:47:25.804Z,1003.77
2018-01-10T07:48:25.717Z,1003.80
2018-01-10T07:49:25.644Z,1003.82
2018-01-10T07:50:25.563Z,1003.84
2018-01-10T07:51:25.478Z,1003.84
2018-01-10T07:52:25.420Z,1003.83
2018-01-10T07:53:25.320Z,1003.87
2018-01-10T07:54:25.234Z,1003.85
2018-01-10T07:55:25.199Z,1003.90
2018-01-10T07:56:25.081Z,1003.87
2018-01-10T07:57:25.024Z,1003.83
2018-01-10T07:58:24.921Z,1003.84
2018-01-10T07:59:24.842Z,1003.87
2018-01-10T08:00:24.762Z,1003.82
2018-01-10T08:01:24.679Z,1003.83
2018-01-10T08:02:24.633Z,1003.79
2018-01-10T08:03:24.515Z,1003.82
2018-01-10T08:04:24.439Z,1003.84
2018-01-10T08:05:24.361Z,1003.77
2018-01-10T08:06:24.281Z,1003.79
2018-01-10T08:07:24.193Z,1003.82
2018-01-10T08:08:24.134Z,1003.79
2018-01-10T08:09:24.040Z,1003.85
2018-01-10T08:10:23.951Z,1003.80
2018-01-10T08:11:23.878Z,1003.81
2018-01-10T08:12:23.795Z,1003.84
2018-01-10T08:13:23.748Z,1003.82
2018-01-10T08:14:23.650Z,1003.78
2018-01-10T08:15:23.559Z,1003.82
2018-01-10T08:16:23.474Z,1003.87
2018-01-10T08:17:23.399Z,1003.87
2018-01-10T08:18:23.322Z,1003.86
2018-01-10T08:19:23.241Z,1003.89
2018-01-10T08:20:23.151Z,1003.86
2018-01-10T08:21:23.080Z,1003.84
2018-01-10T08:22:22.991Z,1003.80
2018-01-10T08:23:22.917Z,1003.90
2018-01-10T08:24:22.842Z,1003.91
2018-01-10T08:25:22.759Z,1003.83
2018-01-10T08:26:22.671Z,1003.86
2018-01-10T08:27:22.591Z,1003.84
2018-01-10T08:28:22.522Z,1003.89
2018-01-10T08:29:22.452Z,1003.87
2018-01-10T08:30:22.353Z,1003.92
2018-01-10T08:31:22.277Z,1003.94
2018-01-10T08:32:22.192Z,1003.96
2018-01-10T08:33:22.119Z,1003.98
2018-01-10T08:34:22.069Z,1003.90
2018-01-10T08:35:21.957Z,1003.99
2018-01-10T08:36:21.870Z,1003.95
2018-01-10T08:37:21.792Z,1003.98
2018-01-10T08:38:21.710Z,1003.92
2018-01-10T08:39:21.637Z,1004.02
2018-01-10T08:40:21.557Z,1004.04
2018-01-10T08:41:21.477Z,1004.05
2018-01-10T08:42:21.399Z,1004.01
2018-01-10T08:43:21.318Z,1004.03
2018-01-10T08:44:21.230Z,1004.01
2018-01-10T08:45:21.184Z,1004.03
2018-01-10T08:46:21.075Z,1004.03
2018-01-10T08:47:21.000Z,1004.07
2018-01-10T08:48:20.921Z,1004.06
2018-01-10T08:49:20.844Z,1004.03
2018-01-10T08:50:20.785Z,1004.07
2018-01-10T08:51:20.671Z,1004.07
2018-01-10T08:52:20.599Z,1004.05
2018-01-10T08:53:20.524Z,1003.98
2018-01-10T08:54:20.438Z,1004.03
2018-01-10T08:55:20.361Z,1004.04
2018-01-10T08:56:20.279Z,1004.04
2018-01-10T08:57:20.206Z,1004.07
2018-01-10T08:58:20.118Z,1004.03
2018-01-10T08:59:20.044Z,1004.07
2018-01-10T09:00:19.971Z,1004.06
2018-01-10T09:01:19.899Z,1004.11
2018-01-10T09:02:19.802Z,1004.12
2018-01-10T09:03:19.722Z,1004.11
2018-01-10T09:04:19.646Z,1004.13
2018-01-10T09:05:19.569Z,1004.09
2018-01-10T09:06:19.511Z,1004.13
2018-01-10T09:07:19.397Z,1004.15
2018-01-10T09:08:19.319Z,1004.13
2018-01-10T09:09:19.247Z,1004.18
2018-01-10T09:10:19.166Z,1004.19
2018-01-10T09:11:19.085Z,1004.23
2018-01-10T09:12:19.005Z,1004.22
2018-01-10T09:13:18.916Z,1004.25
2018-01-10T09:14:18.842Z,1004.22
2018-01-10T09:15:18.773Z,1004.26
2018-01-10T09:16:18.681Z,1004.30
2018-01-10T09:17:18.629Z,1004.26
2018-01-10T09:18:18.528Z,1004.28
2018-01-10T09:19:18.452Z,1004.26
2018-01-10T09:20:18.372Z,1004.24
2018-01-10T09:21:18.283Z,1004.26
2018-01-10T09:22:18.211Z,1004.23
2018-01-10T09:23:18.148Z,1004.26
2018-01-10T09:24:18.045Z,1004.27
2018-01-10T09:25:17.967Z,1004.30
2018-01-10T09:26:17.893Z,1004.29
2018-01-10T09:27:17.805Z,1004.27
2018-01-10T09:28:17.749Z,1004.27
2018-01-10T09:29:17.652Z,1004.27
2018-01-10T09:30:17.574Z,1004.30
2018-01-10T09:31:17.486Z,1004.26
2018-01-10T09:32:17.413Z,1004.28
2018-01-10T09:33:17.363Z,1004.26
2018-01-10T09:34:17.258Z,1004.27
2018-01-10T09:35:17.174Z,1004.21
2018-01-10T09:36:17.093Z,1004.25
2018-01-10T09:37:17.009Z,1004.26
2018-01-10T09:38:16.959Z,1004.24
2018-01-10T09:39:16.848Z,1004.26
2018-01-10T09:40:16.769Z,1004.24
2018-01-10T09:41:16.692Z,1004.28
2018-01-10T09:42:16.612Z,1004.23
2018-01-10T09:43:16.600Z,1004.26
2018-01-10T09:44:16.458Z,1004.33
2018-01-10T09:45:16.382Z,1004.30
2018-01-10T09:46:16.300Z,1004.25
2018-01-10T09:47:16.216Z,1004.25
2018-01-10T09:48:16.137Z,1004.31
2018-01-10T09:49:16.085Z,1004.25
2018-01-10T09:50:15.980Z,1004.27
2018-01-10T09:51:15.898Z,1004.25
2018-01-10T09:52:15.822Z,1004.25
2018-01-10T09:53:15.743Z,1004.31
2018-01-10T09:54:15.700Z,1004.28
2018-01-10T09:55:15.576Z,1004.29
2018-01-10T09:56:15.507Z,1004.28
2018-01-10T09:57:15.418Z,1004.26
2018-01-10T09:58:15.348Z,1004.25
2018-01-10T09:59:15.293Z,1004.22
2018-01-10T10:00:15.185Z,1004.25
2018-01-10T10:01:15.129Z,1004.25
2018-01-10T10:02:15.030Z,1004.21
2018-01-10T10:03:14.942Z,1004.26
2018-01-10T10:04:14.863Z,1004.26
2018-01-10T10:05:14.793Z,1004.17
2018-01-10T10:06:14.729Z,1004.17
2018-01-10T10:07:14.631Z,1004.20
2018-01-10T10:08:14.573Z,1004.18
2018-01-10T10:09:14.470Z,1004.22
2018-01-10T10:10:14.417Z,1004.21
2018-01-10T10:11:14.312Z,1004.19
2018-01-10T10:12:14.227Z,1004.20
2018-01-10T10:13:14.163Z,1004.25
2018-01-10T10:14:14.069Z,1004.20
2018-01-10T10:15:14.023Z,1004.24
2018-01-10T10:16:13.917Z,1004.23
2018-01-10T10:17:13.845Z,1004.22
2018-01-10T10:18:13.758Z,1004.20
2018-01-10T10:19:13.672Z,1004.19
2018-01-10T10:20:13.591Z,1004.17
2018-01-10T10:21:13.521Z,1004.17
2018-01-10T10:22:13.432Z,1004.17
2018-01-10T10:23:13.354Z,1004.22
2018-01-10T10:24:13.280Z,1004.18
2018-01-10T10:25:13.203Z,1004.17
2018-01-10T10:26:13.119Z,1004.16
2018-01-10T10:27:13.037Z,1004.12
2018-01-10T10:28:12.964Z,1004.11
2018-01-10T10:29:12.875Z,1004.09
2018-01-10T10:30:12.806Z,1004.04
2018-01-10T10:31:12.726Z,1004.04
2018-01-10T10:32:12.646Z,1004.08
2018-01-10T10:33:12.560Z,1004.08
2018-01-10T10:34:12.487Z,1004.04
2018-01-10T10:35:12.404Z,1004.09
2018-01-10T10:36:12.334Z,1004.06
2018-01-10T10:37:12.248Z,1004.05
2018-01-10T10:38:12.175Z,1004.05
2018-01-10T10:39:12.113Z,1004.03
2018-01-10T10:40:12.012Z,1004.00
2018-01-10T10:41:11.965Z,1004.03
2018-01-10T10:42:11.845Z,1003.99
2018-01-10T10:43:11.767Z,1003.94
2018-01-10T10:44:11.687Z,1003.99
2018-01-10T10:45:11.618Z,1003.98
2018-01-10T10:46:11.538Z,1003.93
2018-01-10T10:47:11.452Z,1003.99
2018-01-10T10:48:11.370Z,1003.96
2018-01-10T10:49:11.362Z,1003.92
2018-01-10T10:50:11.212Z,1003.90
2018-01-10T10:51:11.139Z,1003.87
2018-01-10T10:52:11.058Z,1003.87
2018-01-10T10:53:10.998Z,1003.88
2018-01-10T10:54:10.901Z,1003.91
2018-01-10T10:55:10.817Z,1003.90
2018-01-10T10:56:10.742Z,1003.92
2018-01-10T10:57:10.692Z,1003.90
2018-01-10T10:58:10.590Z,1003.91
2018-01-10T10:59:10.501Z,1003.90
2018-01-10T11:00:10.426Z,1003.95
2018-01-10T11:01:10.356Z,1003.88
2018-01-10T11:02:10.294Z,1003.92
2018-01-10T11:03:10.189Z,1003.94
2018-01-10T11:04:10.108Z,1003.94
2018-01-10T11:05:10.026Z,1003.93
2018-01-10T11:06:09.956Z,1003.88
2018-01-10T11:07:09.865Z,1003.91
2018-01-10T11:08:09.789Z,1003.88
2018-01-10T11:09:09.711Z,1003.89
2018-01-10T11:10:09.630Z,1003.83
2018-01-10T11:11:09.550Z,1003.83
2018-01-10T11:12:09.481Z,1003.83
2018-01-10T11:13:09.403Z,1003.81
2018-01-10T11:14:09.322Z,1003.74
2018-01-10T11:15:09.244Z,1003.72
2018-01-10T11:16:09.164Z,1003.73
2018-01-10T11:17:09.083Z,1003.70
2018-01-10T11:18:09.028Z,1003.74
2018-01-10T11:19:08.924Z,1003.63
2018-01-10T11:20:08.842Z,1003.69
2018-01-10T11:21:08.764Z,1003.71
2018-01-10T11:22:08.684Z,1003.66
2018-01-10T11:23:08.634Z,1003.65
2018-01-10T11:24:08.534Z,1003.70
2018-01-10T11:25:08.456Z,1003.64
2018-01-10T11:26:08.371Z,1003.66
2018-01-10T11:27:08.291Z,1003.67
2018-01-10T11:28:08.220Z,1003.61
2018-01-10T11:29:08.142Z,1003.60
2018-01-10T11:30:08.057Z,1003.61
2018-01-10T11:31:07.977Z,1003.59
2018-01-10T11:32:07.901Z,1003.61
2018-01-10T11:33:07.822Z,1003.61
2018-01-10T11:34:07.746Z,1003.63
2018-01-10T11:35:07.662Z,1003.60
2018-01-10T11:36:07.588Z,1003.60
2018-01-10T11:37:07.504Z,1003.61
2018-01-10T11:38:07.455Z,1003.60
2018-01-10T11:39:07.374Z,1003.65
2018-01-10T11:40:07.274Z,1003.64
2018-01-10T11:41:07.188Z,1003.59
2018-01-10T11:42:07.112Z,1003.57
2018-01-10T11:43:07.038Z,1003.54
2018-01-10T11:44:07.000Z,1003.55
2018-01-10T11:45:06.880Z,1003.50
2018-01-10T11:46:06.802Z,1003.48
2018-01-10T11:47:06.722Z,1003.50
2018-01-10T11:48:06.656Z,1003.47
2018-01-10T11:49:06.566Z,1003.45
2018-01-10T11:50:06.484Z,1003.49
2018-01-10T11:51:06.408Z,1003.49
2018-01-10T11:52:06.325Z,1003.46
2018-01-10T11:53:06.254Z,1003.44
2018-01-10T11:54:06.169Z,1003.40
2018-01-10T11:55:06.123Z,1003.41
2018-01-10T11:56:06.011Z,1003.39
2018-01-10T11:57:05.934Z,1003.33
2018-01-10T11:58:05.859Z,1003.35
2018-01-10T11:59:05.771Z,1003.35
2018-01-10T12:00:05.696Z,1003.31
2018-01-10T12:01:05.623Z,1003.31
2018-01-10T12:02:05.544Z,1003.37
2018-01-10T12:03:05.466Z,1003.32
2018-01-10T12:04:05.389Z,1003.31